Terminal Aerodrome Forecast
Issued by NWS

Home | Current Version | Previous Version | Text Only | Print | Product List | Glossary On
Versions: 1 2 3 4 5 6 7 8 9 10 11 12 13 14 15 16 17 18 19 20 21 22 23 24 25 26 27 28 29 30
000
FTUS46 KSGX 300915 AAB
TAFSAN
TAF AMD
KSAN 300915Z 3009/3112 VRB04KT P6SM OVC009
     FM301530 VRB03KT P6SM SCT010
     FM301900 28009KT P6SM SKC
     FM310200 VRB05KT P6SM SCT012
     FM310500 VRB05KT P6SM BKN012=

USA.gov is the U.S. government's official web portal to all federal, state and local government web resources and services.